KFWA/FWA METAR and TAF weather

Enter ICAO airport designator
Station Type Date Time Source
KFWA METAR 2019/10/15 21:54 UTC NOAA

KFWA 152154Z 21015G22KT 10SM BKN044 21/11 A2977 RMK AO2 SLP083 T02060106


Station Type Date Time Source
KFWA Decoded METAR 2019/10/15 21:54 UTC NOAA

FORT WAYNE INTERNATIONAL, IN, United States (KFWA) 41-00N 85-12W 248M
Oct 15, 2019 - 05:54 PM EDT / 2019.10.15 2154 UTC
Wind: from the SSW (210 degrees) at 17 MPH (15 KT) gusting to 25 MPH (22 KT):0
Visibility: 10 mile(s):0
Sky conditions: mostly cloudy
Temperature: 69.1 F (20.6 C)
Dew Point: 51.1 F (10.6 C)
Relative Humidity: 52%
Pressure (altimeter): 29.77 in. Hg (1008 hPa)
ob: KFWA 152154Z 21015G22KT 10SM BKN044 21/11 A2977 RMK AO2 SLP083 T02060106
cycle: 22

Station Type Date Time Source
KFWA TAF 2019/10/15 18:42 UTC NOAA

TAF KFWA 151739Z 1518/1618 18014G22KT P6SM BKN050
FM160100 20012KT P6SM -SHRA OVC020
FM160500 27014G20KT P6SM BKN025
FM161200 29018G26KT P6SM OVC015
TEMPO 1612/1616 5SM -SHRA BR OVC008

Example: see airport list